Terminal Aerodrome Forecast
Issued by NWS

Home | Current Version | Previous Version | Text Only | Print | Product List | Glossary On
Versions: 1 2 3 4 5 6 7 8 9 10 11 12 13 14 15 16 17 18 19 20 21 22 23 24 25 26 27
000
FTUS46 KEKA 261127
TAFCEC
TAF
KCEC 261127Z 2612/2712 17015KT 3SM RA BR OVC004
     FM261300 17015G22KT 2SM -RA BR OVC004
     FM262000 29010KT 3SM -RA BR BKN004 OVC015
     FM270000 32006KT P6SM SCT007 OVC015
     FM270900 35006KT P6SM BKN050=

USA.gov is the U.S. government's official web portal to all federal, state and local government web resources and services.